Página principal
METAR-TAF:

METAR-TAF

Aeroportos :

Beirute, Líbano

latitude: 33-49N, longitude: 035-29E, altura: 29 m

Observação actual do tempo

O boletim foi feito há 53 minutos, às 10:00 UTC
Vento 4 kt de oes-noroeste, variando entre oes-sudoeste e noroeste
Temperatura 27°C
Humidade 48%
Pressão 1018 hPa
Visibilidade 10 km ou mais
sem nuvens abaixo de 1500 metros e sem cumulonimbus

METAR: OLBA 181000Z 29004KT 250V310 CAVOK 27/15 Q1018 NOSIG

Hora: 13:53 (10:53 UTC)

Previsão

O boletim foi feito há 6 horas e 53 minutos, às 04:00 UTC
Previsão válida de 18 às 06 UTC a 19 às 12 UTC
Vento 6 kt de nor-nordeste
Visibilidade 10 km ou mais
Poucas nuvensa uma altura de 2600 ft
Tornando-se
de 18 às 18 UTC a 18 às 21 UTC
Vento 8 kt de nor-noroeste
Visibilidade 10 km ou mais
sem nuvens abaixo de 1500 metros e sem cumulonimbus

TAF: OLBA 180400Z 1806/1912 03006KT 9999 FEW026 BECMG 1818/1821 06005KT CAVOK 1906/1909 33008KT

Observações e previsões do tempo de mais de 4000 aeroportos (mensagens METAR e TAF).

As estações disponíveis são os pontos amarelos e vermelhos sobre o mapa.

Mova o rato sobre o mapa para ver o nome da estação.

Depois clique no ponto para visualizar as observações e previsões meteorológicas.

Para alterar o mapa : clique nos botões verdes com uma cruz preta para aumentar o zoom; no botão verde com uma pitada de zoom; ou nas setas verdes para mapas adjacentes.


METAR-TAF: